createdAt,value
2022-12-19T00:02:23.060Z,100.00
2022-12-19T00:05:13.369Z,100.00
2022-12-19T00:08:12.406Z,100.00
2022-12-19T00:11:06.355Z,100.00
2022-12-19T00:13:54.825Z,100.00
2022-12-19T00:16:43.331Z,100.00
2022-12-19T00:19:31.925Z,100.00
2022-12-19T00:22:20.558Z,100.00
2022-12-19T00:25:10.837Z,100.00
2022-12-19T00:27:59.702Z,100.00
2022-12-19T00:30:48.378Z,100.00
2022-12-19T00:33:37.852Z,100.00
2022-12-19T00:36:32.985Z,100.00
2022-12-19T00:39:21.472Z,100.00
2022-12-19T00:42:11.267Z,100.00
2022-12-19T00:44:59.906Z,100.00
2022-12-19T00:47:48.472Z,100.00
2022-12-19T00:50:36.957Z,100.00
2022-12-19T00:53:25.425Z,100.00
2022-12-19T00:56:15.767Z,100.00
2022-12-19T00:59:05.736Z,100.00
2022-12-19T01:01:54.236Z,100.00
2022-12-19T01:04:42.815Z,100.00
2022-12-19T01:07:31.298Z,100.00
2022-12-19T01:10:19.767Z,100.00
2022-12-19T01:13:07.233Z,100.00
2022-12-19T01:15:57.136Z,100.00
2022-12-19T01:18:45.636Z,100.00
2022-12-19T01:21:34.284Z,100.00
2022-12-19T01:24:22.791Z,100.00
2022-12-19T01:27:11.297Z,100.00
2022-12-19T01:29:59.786Z,100.00
2022-12-19T01:32:49.571Z,100.00
2022-12-19T01:35:38.060Z,100.00
2022-12-19T01:38:26.533Z,100.00
2022-12-19T01:41:15.034Z,100.00
2022-12-19T01:44:05.846Z,100.00
2022-12-19T01:46:57.500Z,100.00
2022-12-19T01:49:47.278Z,100.00
2022-12-19T01:52:35.701Z,100.00
2022-12-19T01:55:24.232Z,100.00
2022-12-19T01:58:14.010Z,100.00
2022-12-19T02:01:02.651Z,100.00
2022-12-19T02:03:51.753Z,100.00
2022-12-19T02:06:42.911Z,100.00
2022-12-19T02:09:31.366Z,100.00
2022-12-19T02:12:19.792Z,100.00
2022-12-19T02:15:11.097Z,100.00
2022-12-19T02:18:05.760Z,100.00
2022-12-19T02:21:14.436Z,100.00
2022-12-19T02:24:25.249Z,100.00
2022-12-19T02:27:26.419Z,100.00
2022-12-19T02:30:15.772Z,100.00
2022-12-19T02:33:13.720Z,100.00
2022-12-19T02:36:07.672Z,100.00
2022-12-19T02:39:00.113Z,100.00
2022-12-19T02:41:50.495Z,100.00
2022-12-19T02:44:43.364Z,100.00
2022-12-19T02:47:33.804Z,100.00
2022-12-19T02:50:23.998Z,100.00
2022-12-19T02:53:14.771Z,100.00
2022-12-19T02:56:21.334Z,100.00
2022-12-19T02:59:22.441Z,100.00
2022-12-19T03:02:17.322Z,100.00
2022-12-19T03:05:12.670Z,100.00
2022-12-19T03:08:06.849Z,100.00
2022-12-19T03:10:59.681Z,100.00
2022-12-19T03:13:53.384Z,100.00
2022-12-19T03:16:42.334Z,100.00
2022-12-19T03:19:31.092Z,100.00
2022-12-19T03:22:19.678Z,100.00
2022-12-19T03:25:10.093Z,100.00
2022-12-19T03:28:02.771Z,100.00
2022-12-19T03:30:51.662Z,100.00
2022-12-19T03:33:41.414Z,100.00
2022-12-19T03:36:33.119Z,100.00
2022-12-19T03:39:21.969Z,100.00
2022-12-19T03:42:29.464Z,100.00
2022-12-19T03:45:22.229Z,100.00
2022-12-19T03:48:12.810Z,100.00
2022-12-19T03:51:06.780Z,100.00
2022-12-19T03:54:00.673Z,100.00
2022-12-19T03:56:53.069Z,100.00
2022-12-19T03:59:46.267Z,100.00
2022-12-19T04:02:36.606Z,100.00
2022-12-19T04:05:27.252Z,100.00
2022-12-19T04:08:16.662Z,100.00
2022-12-19T04:11:08.591Z,100.00
2022-12-19T04:14:01.274Z,100.00
2022-12-19T04:16:54.574Z,100.00
2022-12-19T04:19:46.121Z,100.00
2022-12-19T04:22:37.794Z,100.00
2022-12-19T04:25:29.658Z,100.00
2022-12-19T04:28:20.124Z,100.00
2022-12-19T04:31:09.404Z,100.00
2022-12-19T04:33:59.266Z,100.00
2022-12-19T04:36:47.834Z,100.00
2022-12-19T04:39:36.303Z,100.00
2022-12-19T04:42:24.809Z,100.00
2022-12-19T04:45:13.853Z,100.00
2022-12-19T04:48:02.528Z,100.00
2022-12-19T04:50:52.394Z,100.00
2022-12-19T04:53:40.860Z,100.00
2022-12-19T04:56:29.347Z,100.00
2022-12-19T04:59:17.819Z,100.00
2022-12-19T05:02:06.376Z,100.00
2022-12-19T05:04:54.978Z,100.00
2022-12-19T05:07:44.776Z,100.00
2022-12-19T05:10:33.277Z,100.00
2022-12-19T05:13:21.768Z,100.00
2022-12-19T05:16:12.025Z,100.00
2022-12-19T05:19:00.820Z,100.00
2022-12-19T05:21:49.296Z,100.00
2022-12-19T05:24:39.176Z,100.00
2022-12-19T05:27:27.631Z,100.00
2022-12-19T05:30:16.193Z,100.00
2022-12-19T05:33:04.839Z,100.00
2022-12-19T05:35:53.299Z,100.00
2022-12-19T05:38:42.406Z,100.00
2022-12-19T05:41:32.238Z,100.00
2022-12-19T05:44:20.695Z,100.00
2022-12-19T05:47:09.239Z,100.00
2022-12-19T05:49:57.723Z,100.00
2022-12-19T05:52:46.235Z,100.00
2022-12-19T05:55:34.910Z,100.00
2022-12-19T05:58:24.671Z,100.00
2022-12-19T06:01:15.131Z,100.00
2022-12-19T06:04:04.302Z,100.00
2022-12-19T06:06:52.721Z,100.00
2022-12-19T06:09:41.173Z,100.00
2022-12-19T06:12:29.609Z,100.00
2022-12-19T06:15:19.350Z,100.00
2022-12-19T06:18:07.806Z,100.00
2022-12-19T06:20:59.213Z,100.00
2022-12-19T06:23:48.373Z,100.00
2022-12-19T06:26:36.874Z,100.00
2022-12-19T06:29:25.314Z,100.00
2022-12-19T06:32:15.200Z,100.00
2022-12-19T06:35:04.855Z,100.00
2022-12-19T06:37:56.603Z,100.00
2022-12-19T06:41:06.612Z,100.00
2022-12-19T06:43:58.389Z,100.00
2022-12-19T06:46:46.848Z,100.00
2022-12-19T06:49:36.709Z,100.00
2022-12-19T06:52:25.731Z,100.00
2022-12-19T06:55:14.468Z,100.00
2022-12-19T06:58:03.001Z,100.00
2022-12-19T07:00:52.004Z,100.00
2022-12-19T07:03:41.726Z,100.00
2022-12-19T07:06:31.515Z,100.00
2022-12-19T07:09:20.028Z,100.00
2022-12-19T07:12:08.950Z,100.00
2022-12-19T07:14:57.495Z,100.00
2022-12-19T07:17:45.962Z,100.00
2022-12-19T07:20:35.678Z,100.00
2022-12-19T07:23:25.578Z,100.00
2022-12-19T07:26:14.079Z,100.00
2022-12-19T07:29:02.895Z,100.00
2022-12-19T07:31:51.384Z,100.00
2022-12-19T07:34:39.924Z,100.00
2022-12-19T07:37:28.405Z,100.00
2022-12-19T07:40:18.972Z,100.00
2022-12-19T07:43:07.580Z,100.00
2022-12-19T07:45:56.638Z,100.00
2022-12-19T07:48:45.165Z,100.00
2022-12-19T07:51:33.880Z,100.00
2022-12-19T07:54:22.464Z,100.00
2022-12-19T07:57:12.328Z,100.00
2022-12-19T08:00:00.792Z,100.00
2022-12-19T08:02:49.492Z,100.00
2022-12-19T08:05:38.037Z,100.00
2022-12-19T08:08:26.539Z,100.00
2022-12-19T08:11:17.873Z,100.00
2022-12-19T08:14:07.826Z,100.00
2022-12-19T08:17:19.637Z,100.00
2022-12-19T08:20:05.484Z,100.00
2022-12-19T08:22:53.961Z,100.00
2022-12-19T08:25:42.437Z,100.00
2022-12-19T08:28:31.202Z,100.00
2022-12-19T08:31:21.662Z,100.00
2022-12-19T08:34:10.834Z,100.00
2022-12-19T08:36:59.410Z,100.00
2022-12-19T08:39:47.875Z,100.00
2022-12-19T08:42:36.313Z,100.00
2022-12-19T08:45:25.053Z,100.00
2022-12-19T08:48:14.931Z,100.00
2022-12-19T08:51:05.405Z,100.00
2022-12-19T08:53:53.997Z,100.00
2022-12-19T08:56:45.958Z,100.00
2022-12-19T08:59:35.158Z,100.00
2022-12-19T09:02:25.372Z,100.00
2022-12-19T09:06:01.224Z,100.00
2022-12-19T09:08:25.764Z,100.00
2022-12-19T09:11:15.645Z,100.00
2022-12-19T09:14:05.041Z,100.00
2022-12-19T09:16:53.678Z,100.00
2022-12-19T09:19:47.049Z,100.00
2022-12-19T09:22:38.102Z,100.00
2022-12-19T09:25:26.573Z,100.00
2022-12-19T09:28:27.349Z,100.00
2022-12-19T09:31:17.726Z,100.00
2022-12-19T09:34:06.488Z,100.00
2022-12-19T09:36:55.024Z,100.00
2022-12-19T09:39:45.168Z,100.00
2022-12-19T09:42:54.551Z,100.00
2022-12-19T09:45:51.949Z,100.00
2022-12-19T09:48:40.577Z,100.00
2022-12-19T09:51:33.966Z,100.00
2022-12-19T09:54:26.941Z,100.00
2022-12-19T09:57:19.846Z,100.00
2022-12-19T10:00:11.583Z,100.00
2022-12-19T10:03:02.740Z,100.00
2022-12-19T10:07:11.069Z,100.00
2022-12-19T10:11:04.735Z,100.00
2022-12-19T10:12:44.609Z,100.00
2022-12-19T10:15:43.486Z,100.00
2022-12-19T10:18:43.007Z,99.16
2022-12-19T10:22:16.939Z,99.79
2022-12-19T10:25:08.592Z,98.64
2022-12-19T10:28:09.590Z,97.79
2022-12-19T10:31:12.491Z,98.22
2022-12-19T10:34:07.727Z,98.52
2022-12-19T10:37:25.675Z,98.52
2022-12-19T10:40:20.995Z,98.93
2022-12-19T10:43:32.797Z,98.93
2022-12-19T10:46:31.314Z,98.04
2022-12-19T10:49:22.071Z,97.29
2022-12-19T10:52:12.554Z,97.19
2022-12-19T10:55:01.142Z,97.56
2022-12-19T10:57:49.727Z,96.74
2022-12-19T11:00:47.700Z,97.48
2022-12-19T11:03:36.958Z,96.89
2022-12-19T11:06:47.563Z,97.23
2022-12-19T11:09:38.895Z,96.80
2022-12-19T11:15:45.432Z,96.45
2022-12-19T11:18:03.602Z,95.99
2022-12-19T11:29:16.199Z,94.80
2022-12-19T11:29:27.699Z,95.53
2022-12-19T11:30:46.771Z,94.26
2022-12-19T11:30:47.657Z,95.03
2022-12-19T11:34:50.323Z,95.41
2022-12-19T11:37:42.099Z,95.01
2022-12-19T11:40:34.387Z,95.40
2022-12-19T11:43:45.805Z,95.97
2022-12-19T11:46:40.208Z,95.08
2022-12-19T11:49:31.135Z,94.53
2022-12-19T11:53:03.484Z,95.03
2022-12-19T11:55:45.484Z,94.56
2022-12-19T11:58:33.994Z,93.92
2022-12-19T12:01:36.920Z,93.40
2022-12-19T12:05:00.636Z,92.10
2022-12-19T12:09:35.209Z,91.51
2022-12-19T12:17:09.185Z,92.18
2022-12-19T12:25:47.075Z,92.77
2022-12-19T12:31:01.919Z,93.42
2022-12-19T12:31:05.599Z,93.04
2022-12-19T12:31:41.881Z,94.65
2022-12-19T12:31:58.475Z,94.46
2022-12-19T12:32:04.004Z,93.90
2022-12-19T12:35:43.567Z,95.97
2022-12-19T12:41:03.140Z,93.36
2022-12-19T12:44:02.114Z,93.62
2022-12-19T12:46:54.836Z,94.18
2022-12-19T12:49:45.835Z,93.73
2022-12-19T12:52:37.309Z,92.86
2022-12-19T12:55:28.786Z,93.67
2022-12-19T12:58:46.368Z,94.40
2022-12-19T13:01:37.410Z,95.15
2022-12-19T13:04:29.626Z,95.12
2022-12-19T13:07:23.268Z,95.57
2022-12-19T13:10:24.098Z,94.20
2022-12-19T13:13:21.144Z,93.60
2022-12-19T13:16:45.991Z,94.65
2022-12-19T13:19:37.236Z,94.86
2022-12-19T13:22:40.357Z,95.53
2022-12-19T13:25:50.709Z,95.93
2022-12-19T13:28:42.603Z,95.96
2022-12-19T13:31:36.895Z,96.57
2022-12-19T13:34:36.966Z,96.70
2022-12-19T13:39:57.817Z,97.04
2022-12-19T13:41:01.138Z,97.17
2022-12-19T13:43:49.718Z,97.62
2022-12-19T13:46:41.487Z,98.26
2022-12-19T13:49:32.892Z,98.55
2022-12-19T13:52:24.231Z,98.96
2022-12-19T13:55:15.124Z,99.33
2022-12-19T13:58:05.756Z,99.46
2022-12-19T14:00:56.512Z,99.55
2022-12-19T14:03:46.418Z,100.00
2022-12-19T14:06:40.918Z,100.00
2022-12-19T14:11:27.698Z,100.00
2022-12-19T14:13:58.967Z,100.00
2022-12-19T14:16:44.250Z,100.00
2022-12-19T14:19:39.610Z,100.00
2022-12-19T14:22:28.192Z,100.00
2022-12-19T14:26:06.074Z,100.00
2022-12-19T14:28:37.875Z,100.00
2022-12-19T14:31:27.420Z,100.00
2022-12-19T14:35:47.748Z,100.00
2022-12-19T14:39:18.201Z,100.00
2022-12-19T14:40:43.336Z,100.00
2022-12-19T14:43:58.538Z,100.00
2022-12-19T14:52:53.598Z,100.00
2022-12-19T14:54:24.347Z,100.00
2022-12-19T14:54:40.048Z,100.00
2022-12-19T14:57:01.244Z,100.00
2022-12-19T14:59:50.312Z,100.00
2022-12-19T15:02:39.474Z,100.00
2022-12-19T15:05:30.286Z,100.00
2022-12-19T15:09:02.593Z,100.00
2022-12-19T15:13:30.469Z,100.00
2022-12-19T15:15:22.124Z,100.00
2022-12-19T15:18:23.166Z,100.00
2022-12-19T15:21:13.730Z,100.00
2022-12-19T15:24:02.257Z,100.00
2022-12-19T15:26:53.321Z,100.00
2022-12-19T15:29:42.637Z,100.00
2022-12-19T15:32:32.514Z,100.00
2022-12-19T15:35:21.008Z,100.00
2022-12-19T15:38:10.674Z,100.00
2022-12-19T15:40:59.201Z,100.00
2022-12-19T15:44:04.800Z,100.00
2022-12-19T15:46:55.311Z,100.00
2022-12-19T15:49:45.176Z,100.00
2022-12-19T15:52:33.630Z,100.00
2022-12-19T15:55:24.096Z,100.00
2022-12-19T15:58:14.403Z,100.00
2022-12-19T16:01:04.982Z,100.00
2022-12-19T16:03:53.881Z,100.00
2022-12-19T16:06:44.100Z,100.00
2022-12-19T16:09:33.545Z,100.00
2022-12-19T16:12:25.610Z,100.00
2022-12-19T16:15:17.297Z,100.00
2022-12-19T16:18:05.911Z,100.00
2022-12-19T16:20:54.520Z,100.00
2022-12-19T16:23:44.332Z,100.00
2022-12-19T16:26:35.369Z,100.00
2022-12-19T16:29:25.578Z,100.00
2022-12-19T16:32:14.629Z,100.00
2022-12-19T16:35:03.100Z,100.00
2022-12-19T16:37:51.657Z,100.00
2022-12-19T16:40:41.528Z,100.00
2022-12-19T16:43:33.334Z,100.00
2022-12-19T16:46:26.041Z,100.00
2022-12-19T16:49:15.548Z,100.00
2022-12-19T16:52:04.162Z,100.00
2022-12-19T16:54:53.486Z,100.00
2022-12-19T16:57:43.947Z,100.00
2022-12-19T17:00:32.793Z,100.00
2022-12-19T17:03:28.539Z,100.00
2022-12-19T17:06:18.845Z,100.00
2022-12-19T17:09:07.351Z,100.00
2022-12-19T17:12:01.887Z,100.00
2022-12-19T17:14:51.859Z,100.00
2022-12-19T17:17:40.559Z,100.00
2022-12-19T17:20:38.669Z,100.00
2022-12-19T17:23:29.323Z,100.00
2022-12-19T17:26:18.574Z,100.00
2022-12-19T17:29:10.171Z,100.00
2022-12-19T17:32:00.182Z,100.00
2022-12-19T17:34:48.793Z,100.00
2022-12-19T17:37:37.349Z,100.00
2022-12-19T17:40:27.688Z,100.00
2022-12-19T17:43:16.274Z,100.00
2022-12-19T17:46:05.212Z,100.00
2022-12-19T17:48:55.178Z,100.00
2022-12-19T17:51:45.180Z,100.00
2022-12-19T17:54:34.490Z,100.00
2022-12-19T17:57:22.971Z,100.00
2022-12-19T18:00:12.854Z,100.00
2022-12-19T18:03:05.606Z,100.00
2022-12-19T18:05:56.588Z,100.00
2022-12-19T18:08:45.430Z,100.00
2022-12-19T18:11:38.409Z,100.00
2022-12-19T18:14:30.243Z,100.00
2022-12-19T18:17:24.319Z,100.00
2022-12-19T18:20:29.396Z,100.00
2022-12-19T18:23:24.775Z,100.00
2022-12-19T18:26:13.810Z,100.00
2022-12-19T18:29:03.330Z,100.00
2022-12-19T18:31:52.163Z,100.00
2022-12-19T18:34:40.643Z,100.00
2022-12-19T18:37:29.140Z,100.00
2022-12-19T18:40:27.560Z,100.00
2022-12-19T18:43:20.077Z,100.00
2022-12-19T18:46:13.487Z,100.00
2022-12-19T18:49:02.050Z,100.00
2022-12-19T18:51:50.565Z,100.00
2022-12-19T18:54:39.054Z,100.00
2022-12-19T18:57:28.869Z,100.00
2022-12-19T19:00:19.390Z,100.00
2022-12-19T19:03:12.599Z,100.00
2022-12-19T19:06:01.371Z,100.00
2022-12-19T19:08:51.673Z,100.00
2022-12-19T19:11:40.176Z,100.00
2022-12-19T19:14:30.172Z,100.00
2022-12-19T19:17:25.011Z,100.00
2022-12-19T19:20:13.850Z,100.00
2022-12-19T19:23:02.616Z,100.00
2022-12-19T19:25:51.177Z,100.00
2022-12-19T19:28:39.747Z,100.00
2022-12-19T19:31:31.737Z,100.00
2022-12-19T19:34:22.684Z,100.00
2022-12-19T19:37:12.173Z,100.00
2022-12-19T19:40:00.734Z,100.00
2022-12-19T19:42:49.223Z,100.00
2022-12-19T19:45:42.923Z,100.00
2022-12-19T19:48:33.439Z,100.00
2022-12-19T19:51:22.211Z,100.00
2022-12-19T19:54:10.831Z,100.00
2022-12-19T19:56:59.627Z,100.00
2022-12-19T19:59:48.205Z,100.00
2022-12-19T20:02:37.037Z,100.00
2022-12-19T20:05:27.031Z,100.00
2022-12-19T20:08:15.841Z,100.00
2022-12-19T20:11:04.347Z,100.00
2022-12-19T20:13:52.830Z,100.00
2022-12-19T20:16:43.354Z,100.00
2022-12-19T20:19:31.947Z,100.00
2022-12-19T20:22:21.908Z,100.00
2022-12-19T20:25:10.613Z,100.00
2022-12-19T20:27:59.185Z,100.00
2022-12-19T20:30:48.082Z,100.00
2022-12-19T20:33:36.776Z,100.00
2022-12-19T20:36:25.648Z,100.00
2022-12-19T20:39:21.765Z,100.00
2022-12-19T20:42:10.373Z,100.00
2022-12-19T20:44:59.225Z,100.00
2022-12-19T20:47:47.890Z,100.00
2022-12-19T20:50:42.629Z,100.00
2022-12-19T20:53:31.556Z,100.00
2022-12-19T20:56:23.315Z,100.00
2022-12-19T20:59:11.887Z,100.00
2022-12-19T21:02:01.021Z,100.00
2022-12-19T21:04:49.749Z,100.00
2022-12-19T21:07:38.531Z,100.00
2022-12-19T21:10:27.021Z,100.00
2022-12-19T21:13:17.192Z,100.00
2022-12-19T21:16:08.675Z,100.00
2022-12-19T21:18:57.418Z,100.00
2022-12-19T21:21:45.889Z,100.00
2022-12-19T21:24:34.339Z,100.00
2022-12-19T21:27:22.787Z,100.00
2022-12-19T21:30:13.315Z,100.00
2022-12-19T21:33:01.869Z,100.00
2022-12-19T21:35:50.350Z,100.00
2022-12-19T21:38:39.342Z,100.00
2022-12-19T21:41:27.784Z,100.00
2022-12-19T21:44:16.262Z,100.00
2022-12-19T21:47:06.550Z,100.00
2022-12-19T21:49:55.092Z,100.00
2022-12-19T21:52:43.588Z,100.00
2022-12-19T21:55:32.067Z,100.00
2022-12-19T21:58:20.578Z,100.00
2022-12-19T22:01:10.387Z,100.00
2022-12-19T22:04:01.575Z,100.00
2022-12-19T22:06:51.590Z,100.00
2022-12-19T22:09:40.131Z,100.00
2022-12-19T22:12:28.624Z,100.00
2022-12-19T22:15:17.208Z,100.00
2022-12-19T22:18:05.800Z,100.00
2022-12-19T22:20:58.122Z,100.00
2022-12-19T22:23:46.865Z,100.00
2022-12-19T22:26:35.536Z,100.00
2022-12-19T22:29:24.320Z,100.00
2022-12-19T22:32:12.888Z,100.00
2022-12-19T22:35:01.421Z,100.00
2022-12-19T22:38:02.677Z,100.00
2022-12-19T22:40:51.180Z,100.00
2022-12-19T22:43:40.326Z,100.00
2022-12-19T22:46:31.071Z,100.00
2022-12-19T22:49:19.725Z,100.00
2022-12-19T22:52:08.232Z,100.00
2022-12-19T22:54:58.093Z,100.00
2022-12-19T22:57:46.637Z,100.00
2022-12-19T23:00:35.193Z,100.00
2022-12-19T23:03:23.733Z,100.00
2022-12-19T23:06:12.567Z,100.00
2022-12-19T23:09:01.388Z,100.00
2022-12-19T23:11:51.275Z,100.00
2022-12-19T23:14:39.791Z,100.00
2022-12-19T23:17:28.274Z,100.00
2022-12-19T23:20:16.842Z,100.00
2022-12-19T23:23:05.880Z,100.00
2022-12-19T23:25:54.840Z,100.00
2022-12-19T23:28:45.679Z,100.00
2022-12-19T23:31:35.111Z,100.00
2022-12-19T23:34:23.634Z,100.00
2022-12-19T23:37:12.794Z,100.00
2022-12-19T23:40:01.490Z,100.00
2022-12-19T23:42:49.957Z,100.00
2022-12-19T23:45:40.147Z,100.00
2022-12-19T23:48:29.465Z,100.00
2022-12-19T23:51:19.479Z,100.00
2022-12-19T23:54:08.719Z,100.00
2022-12-19T23:56:57.233Z,100.00
2022-12-19T23:59:45.781Z,100.00
